Arad, România

10:24 PM EET on februarie 06, 2016 (GMT +0200)
Arad | | Change Station
CLOSE
Current Station
Aeroport
Location: Arad,
Elevation: 351 ft
Nearby Weather Stations

Elev 351 ft 46.18 °N, 21.26 °E | Updated 24 minutes ago

Clear
Cer senin
34 °F
Feels Like 27 °F
N
8
Vânt variabil Vânt from SE

astăzi
High -- | Low -- °F
--% Chance of Precip.
Ieri
High -- | Low -- °F
Precip. -- inch
Presiunea 30.33 inch
Vizibilitatea -9999.0 mile
Nori
Vânt rece 27 °F
Punctul de rouă 30 °F
Umiditatea 87%
Precipitaţii 0.00 inch
Adâncimea zăpezii Not available.
7:52 AM 5:46 PM
Semilună în descreştere, 4% visible
METAR LRAR 062000Z 14007KT CAVOK 01/M01 Q1027
Presiunea 30.33 inch
Vizibilitatea -9999.0 mile
Nori
Vânt rece 27 °F
Punctul de rouă 30 °F
Umiditatea 87%
Precipitaţii 0.00 inch
Adâncimea zăpezii Not available.
7:52 AM 5:46 PM
Semilună în descreştere, 4% visible
METAR LRAR 062000Z 14007KT CAVOK 01/M01 Q1027

10-Day Weather Forecast

Almanac

Astronomie

Feb. 06, 2016 Răsărit Apus
Timpul Actual
Crepusculul Civil
Crepusculul nautic
Răsărit Astronomic
Luna
Durata zilei lumină
Lungimea zilei
Tomorrow will be .
, % of the Moon is Illuminated

Extremele de azi

Country Highs Country Lows

Community

WunderPhotos

Upload Photos

1,891,045 photos uploaded!

WunderBlog® & News

Nearby

Calitatea aerului

  Calitatea aerului Index de calitate a aerului Poluat
Not available.

Adâncimea zapezii

Station Depth Elevation

Earthquake Activity

Oraş Distance Mag. Time & Date
Minimum magnitude displayed is 2.5.

Coastal Water Temperatures

Locul Temperatura

Stations

Nearby Weather Stations

Locaţia staţiei Temp Vânt rece Punctul de rouă Umiditatea Vânt Precip. Elev Actualizare Type